sensor_id;sensor_type;location;lat;lon;timestamp;pressure;altitude;pressure_sealevel;temperature;humidity
37304;BME280;23188;51.188;16.374;2024-02-28T00:01:50;100262.91;;;7.84;100.00
37304;BME280;23188;51.188;16.374;2024-02-28T00:05:52;100258.40;;;7.89;100.00
37304;BME280;23188;51.188;16.374;2024-02-28T00:09:54;100263.30;;;7.89;100.00
37304;BME280;23188;51.188;16.374;2024-02-28T00:13:59;100264.50;;;7.87;100.00
37304;BME280;23188;51.188;16.374;2024-02-28T00:18:04;100263.48;;;7.92;100.00
37304;BME280;23188;51.188;16.374;2024-02-28T00:22:06;100266.07;;;7.88;100.00
37304;BME280;23188;51.188;16.374;2024-02-28T00:26:08;100265.22;;;7.87;100.00
37304;BME280;23188;51.188;16.374;2024-02-28T00:30:10;100268.59;;;7.84;100.00
37304;BME280;23188;51.188;16.374;2024-02-28T00:34:12;100270.54;;;7.81;100.00
37304;BME280;23188;51.188;16.374;2024-02-28T00:38:14;100277.23;;;7.87;100.00
37304;BME280;23188;51.188;16.374;2024-02-28T00:42:16;100281.20;;;7.96;100.00
37304;BME280;23188;51.188;16.374;2024-02-28T00:46:18;100281.14;;;7.97;100.00
37304;BME280;23188;51.188;16.374;2024-02-28T00:50:20;100281.78;;;7.90;100.00
37304;BME280;23188;51.188;16.374;2024-02-28T00:54:22;100280.02;;;7.95;100.00
37304;BME280;23188;51.188;16.374;2024-02-28T00:58:25;100284.14;;;7.97;100.00
37304;BME280;23188;51.188;16.374;2024-02-28T01:02:29;100283.24;;;8.02;100.00
37304;BME280;23188;51.188;16.374;2024-02-28T01:06:31;100284.42;;;8.05;100.00
37304;BME280;23188;51.188;16.374;2024-02-28T01:10:33;100284.27;;;8.07;100.00
37304;BME280;23188;51.188;16.374;2024-02-28T01:14:35;100283.92;;;8.10;100.00
37304;BME280;23188;51.188;16.374;2024-02-28T01:18:37;100281.30;;;8.07;100.00
37304;BME280;23188;51.188;16.374;2024-02-28T01:22:39;100279.68;;;8.02;100.00
37304;BME280;23188;51.188;16.374;2024-02-28T01:26:41;100275.39;;;8.05;100.00
37304;BME280;23188;51.188;16.374;2024-02-28T01:30:43;100267.41;;;8.08;100.00
37304;BME280;23188;51.188;16.374;2024-02-28T01:34:45;100268.45;;;8.09;100.00
37304;BME280;23188;51.188;16.374;2024-02-28T01:38:47;100267.52;;;8.04;100.00
37304;BME280;23188;51.188;16.374;2024-02-28T01:42:49;100264.61;;;8.01;100.00
37304;BME280;23188;51.188;16.374;2024-02-28T01:46:51;100261.84;;;7.92;100.00
37304;BME280;23188;51.188;16.374;2024-02-28T01:50:56;100258.58;;;7.91;100.00
37304;BME280;23188;51.188;16.374;2024-02-28T01:54:59;100258.09;;;7.90;100.00
37304;BME280;23188;51.188;16.374;2024-02-28T01:59:01;100258.85;;;7.82;100.00
37304;BME280;23188;51.188;16.374;2024-02-28T02:03:04;100254.82;;;7.81;100.00
37304;BME280;23188;51.188;16.374;2024-02-28T02:07:06;100254.36;;;7.88;100.00
37304;BME280;23188;51.188;16.374;2024-02-28T02:11:08;100255.38;;;7.89;100.00
37304;BME280;23188;51.188;16.374;2024-02-28T02:15:10;100255.38;;;7.94;100.00
37304;BME280;23188;51.188;16.374;2024-02-28T02:19:12;100257.30;;;7.94;100.00
37304;BME280;23188;51.188;16.374;2024-02-28T02:23:15;100258.17;;;7.92;100.00
37304;BME280;23188;51.188;16.374;2024-02-28T02:27:17;100260.17;;;7.96;100.00
37304;BME280;23188;51.188;16.374;2024-02-28T02:31:19;100257.48;;;7.99;100.00
37304;BME280;23188;51.188;16.374;2024-02-28T02:35:21;100260.27;;;7.99;100.00
37304;BME280;23188;51.188;16.374;2024-02-28T02:39:23;100263.52;;;8.06;100.00
37304;BME280;23188;51.188;16.374;2024-02-28T02:43:25;100258.02;;;8.14;100.00
37304;BME280;23188;51.188;16.374;2024-02-28T02:47:27;100260.63;;;8.22;100.00
37304;BME280;23188;51.188;16.374;2024-02-28T02:51:29;100257.55;;;8.30;100.00
37304;BME280;23188;51.188;16.374;2024-02-28T02:55:31;100256.09;;;8.36;100.00
37304;BME280;23188;51.188;16.374;2024-02-28T02:59:32;100255.95;;;8.33;100.00
37304;BME280;23188;51.188;16.374;2024-02-28T03:03:34;100255.32;;;8.29;100.00
37304;BME280;23188;51.188;16.374;2024-02-28T03:07:39;100256.16;;;8.23;100.00
37304;BME280;23188;51.188;16.374;2024-02-28T03:11:41;100257.23;;;8.18;100.00
37304;BME280;23188;51.188;16.374;2024-02-28T03:15:43;100257.00;;;8.11;100.00
37304;BME280;23188;51.188;16.374;2024-02-28T03:19:45;100256.59;;;8.09;100.00
37304;BME280;23188;51.188;16.374;2024-02-28T03:23:47;100261.14;;;8.17;100.00
37304;BME280;23188;51.188;16.374;2024-02-28T03:27:49;100266.56;;;8.25;100.00
37304;BME280;23188;51.188;16.374;2024-02-28T03:31:51;100273.77;;;8.36;100.00
37304;BME280;23188;51.188;16.374;2024-02-28T03:35:53;100276.65;;;8.42;100.00
37304;BME280;23188;51.188;16.374;2024-02-28T03:39:54;100278.30;;;8.44;100.00
37304;BME280;23188;51.188;16.374;2024-02-28T03:43:56;100286.03;;;8.50;100.00
37304;BME280;23188;51.188;16.374;2024-02-28T03:47:58;100290.28;;;8.57;100.00
37304;BME280;23188;51.188;16.374;2024-02-28T03:52:00;100295.58;;;8.62;100.00
37304;BME280;23188;51.188;16.374;2024-02-28T03:56:03;100302.41;;;8.65;100.00
37304;BME280;23188;51.188;16.374;2024-02-28T04:00:06;100304.85;;;8.66;100.00
37304;BME280;23188;51.188;16.374;2024-02-28T04:04:08;100302.52;;;8.66;100.00
37304;BME280;23188;51.188;16.374;2024-02-28T04:08:10;100306.39;;;8.66;100.00
37304;BME280;23188;51.188;16.374;2024-02-28T04:12:12;100309.06;;;8.66;100.00
37304;BME280;23188;51.188;16.374;2024-02-28T04:16:14;100313.73;;;8.68;100.00
37304;BME280;23188;51.188;16.374;2024-02-28T04:20:16;100315.90;;;8.57;100.00
37304;BME280;23188;51.188;16.374;2024-02-28T04:24:17;100319.48;;;8.41;100.00
37304;BME280;23188;51.188;16.374;2024-02-28T04:28:19;100317.71;;;8.24;100.00
37304;BME280;23188;51.188;16.374;2024-02-28T04:32:21;100326.14;;;8.14;100.00
37304;BME280;23188;51.188;16.374;2024-02-28T04:36:23;100328.77;;;8.12;100.00
37304;BME280;23188;51.188;16.374;2024-02-28T04:40:25;100327.15;;;8.03;100.00
37304;BME280;23188;51.188;16.374;2024-02-28T04:44:27;100329.88;;;7.91;100.00
37304;BME280;23188;51.188;16.374;2024-02-28T04:48:29;100327.70;;;7.82;100.00
37304;BME280;23188;51.188;16.374;2024-02-28T04:52:34;100330.02;;;7.77;100.00
37304;BME280;23188;51.188;16.374;2024-02-28T04:56:40;100332.23;;;7.70;100.00
37304;BME280;23188;51.188;16.374;2024-02-28T05:00:42;100334.97;;;7.61;100.00
37304;BME280;23188;51.188;16.374;2024-02-28T05:04:44;100341.48;;;7.59;100.00
37304;BME280;23188;51.188;16.374;2024-02-28T05:08:46;100345.33;;;7.56;100.00
37304;BME280;23188;51.188;16.374;2024-02-28T05:12:49;100348.92;;;7.55;100.00
37304;BME280;23188;51.188;16.374;2024-02-28T05:16:51;100355.26;;;7.50;100.00
37304;BME280;23188;51.188;16.374;2024-02-28T05:20:52;100362.95;;;7.44;100.00
37304;BME280;23188;51.188;16.374;2024-02-28T05:24:54;100363.76;;;7.42;100.00
37304;BME280;23188;51.188;16.374;2024-02-28T05:28:56;100367.85;;;7.42;100.00
37304;BME280;23188;51.188;16.374;2024-02-28T05:32:59;100362.52;;;7.39;100.00
37304;BME280;23188;51.188;16.374;2024-02-28T05:37:01;100368.88;;;7.39;100.00
37304;BME280;23188;51.188;16.374;2024-02-28T05:41:03;100370.89;;;7.38;100.00
37304;BME280;23188;51.188;16.374;2024-02-28T05:45:06;100370.97;;;7.37;100.00
37304;BME280;23188;51.188;16.374;2024-02-28T05:49:08;100378.13;;;7.33;100.00
37304;BME280;23188;51.188;16.374;2024-02-28T05:53:10;100378.61;;;7.37;100.00
37304;BME280;23188;51.188;16.374;2024-02-28T05:57:12;100380.70;;;7.34;100.00
37304;BME280;23188;51.188;16.374;2024-02-28T06:01:17;100385.07;;;7.29;100.00
37304;BME280;23188;51.188;16.374;2024-02-28T06:05:20;100388.86;;;7.28;100.00
37304;BME280;23188;51.188;16.374;2024-02-28T06:09:22;100393.10;;;7.28;100.00
37304;BME280;23188;51.188;16.374;2024-02-28T06:13:24;100399.06;;;7.26;100.00
37304;BME280;23188;51.188;16.374;2024-02-28T06:17:26;100402.36;;;7.21;100.00
37304;BME280;23188;51.188;16.374;2024-02-28T06:21:28;100405.79;;;7.20;100.00
37304;BME280;23188;51.188;16.374;2024-02-28T06:25:31;100413.64;;;7.24;100.00
37304;BME280;23188;51.188;16.374;2024-02-28T06:29:35;100416.23;;;7.22;100.00
37304;BME280;23188;51.188;16.374;2024-02-28T06:33:38;100423.70;;;7.13;100.00
37304;BME280;23188;51.188;16.374;2024-02-28T06:37:39;100431.70;;;7.15;100.00
37304;BME280;23188;51.188;16.374;2024-02-28T06:41:41;100434.64;;;7.13;100.00
37304;BME280;23188;51.188;16.374;2024-02-28T06:45:43;100437.34;;;7.07;100.00
37304;BME280;23188;51.188;16.374;2024-02-28T06:49:45;100444.85;;;7.02;100.00
37304;BME280;23188;51.188;16.374;2024-02-28T06:53:47;100450.27;;;7.06;100.00
37304;BME280;23188;51.188;16.374;2024-02-28T06:57:49;100453.91;;;7.07;100.00
37304;BME280;23188;51.188;16.374;2024-02-28T07:01:51;100454.58;;;7.05;100.00
37304;BME280;23188;51.188;16.374;2024-02-28T07:05:53;100453.86;;;7.08;100.00
37304;BME280;23188;51.188;16.374;2024-02-28T07:09:57;100463.06;;;7.02;100.00
37304;BME280;23188;51.188;16.374;2024-02-28T07:13:59;100467.42;;;6.96;100.00
37304;BME280;23188;51.188;16.374;2024-02-28T07:18:03;100471.29;;;6.89;100.00
37304;BME280;23188;51.188;16.374;2024-02-28T07:22:05;100470.83;;;6.90;100.00
37304;BME280;23188;51.188;16.374;2024-02-28T07:26:07;100478.51;;;6.80;100.00
37304;BME280;23188;51.188;16.374;2024-02-28T07:30:21;100482.59;;;6.80;100.00
37304;BME280;23188;51.188;16.374;2024-02-28T07:34:23;100490.40;;;6.76;100.00
37304;BME280;23188;51.188;16.374;2024-02-28T07:38:25;100493.87;;;6.77;100.00
37304;BME280;23188;51.188;16.374;2024-02-28T07:42:29;100499.04;;;6.84;100.00
37304;BME280;23188;51.188;16.374;2024-02-28T07:46:31;100498.85;;;6.82;100.00
37304;BME280;23188;51.188;16.374;2024-02-28T07:50:32;100503.52;;;6.78;100.00
37304;BME280;23188;51.188;16.374;2024-02-28T07:54:34;100499.55;;;6.76;100.00
37304;BME280;23188;51.188;16.374;2024-02-28T07:58:38;100501.20;;;6.75;100.00
37304;BME280;23188;51.188;16.374;2024-02-28T08:02:40;100502.15;;;6.80;100.00
37304;BME280;23188;51.188;16.374;2024-02-28T08:06:42;100502.54;;;6.79;100.00
37304;BME280;23188;51.188;16.374;2024-02-28T08:10:44;100506.98;;;6.79;100.00
37304;BME280;23188;51.188;16.374;2024-02-28T08:14:47;100507.80;;;6.80;100.00
37304;BME280;23188;51.188;16.374;2024-02-28T08:18:49;100512.55;;;6.77;100.00
37304;BME280;23188;51.188;16.374;2024-02-28T08:22:51;100514.91;;;6.87;100.00
37304;BME280;23188;51.188;16.374;2024-02-28T08:26:54;100518.04;;;6.85;100.00
37304;BME280;23188;51.188;16.374;2024-02-28T08:30:58;100524.15;;;6.92;100.00
37304;BME280;23188;51.188;16.374;2024-02-28T08:35:00;100522.84;;;6.93;100.00
37304;BME280;23188;51.188;16.374;2024-02-28T08:39:02;100528.14;;;6.99;100.00
37304;BME280;23188;51.188;16.374;2024-02-28T08:43:06;100530.64;;;7.07;100.00
37304;BME280;23188;51.188;16.374;2024-02-28T08:47:08;100533.38;;;6.94;100.00
37304;BME280;23188;51.188;16.374;2024-02-28T08:51:11;100530.27;;;6.95;100.00
37304;BME280;23188;51.188;16.374;2024-02-28T08:55:13;100538.43;;;6.94;100.00
37304;BME280;23188;51.188;16.374;2024-02-28T08:59:19;100544.81;;;6.88;100.00
37304;BME280;23188;51.188;16.374;2024-02-28T09:03:22;100546.66;;;6.84;100.00
37304;BME280;23188;51.188;16.374;2024-02-28T09:07:24;100557.33;;;6.83;100.00
37304;BME280;23188;51.188;16.374;2024-02-28T09:11:26;100562.34;;;6.84;100.00
37304;BME280;23188;51.188;16.374;2024-02-28T09:15:28;100564.94;;;6.91;100.00
37304;BME280;23188;51.188;16.374;2024-02-28T09:19:31;100565.58;;;6.94;100.00
37304;BME280;23188;51.188;16.374;2024-02-28T09:23:33;100566.84;;;6.94;100.00
37304;BME280;23188;51.188;16.374;2024-02-28T09:27:36;100570.54;;;6.89;100.00
37304;BME280;23188;51.188;16.374;2024-02-28T09:31:38;100571.98;;;6.82;100.00
37304;BME280;23188;51.188;16.374;2024-02-28T09:35:40;100580.36;;;6.72;100.00
37304;BME280;23188;51.188;16.374;2024-02-28T09:39:43;100583.23;;;6.68;100.00
37304;BME280;23188;51.188;16.374;2024-02-28T09:43:46;100588.33;;;6.72;100.00
37304;BME280;23188;51.188;16.374;2024-02-28T09:47:49;100596.52;;;6.73;100.00
37304;BME280;23188;51.188;16.374;2024-02-28T09:51:51;100604.39;;;6.77;100.00
37304;BME280;23188;51.188;16.374;2024-02-28T09:55:53;100603.80;;;6.75;100.00
37304;BME280;23188;51.188;16.374;2024-02-28T09:59:59;100608.77;;;6.77;100.00
37304;BME280;23188;51.188;16.374;2024-02-28T10:04:02;100609.08;;;6.76;100.00
37304;BME280;23188;51.188;16.374;2024-02-28T10:08:05;100609.22;;;6.79;100.00
37304;BME280;23188;51.188;16.374;2024-02-28T10:12:07;100608.92;;;6.81;100.00
37304;BME280;23188;51.188;16.374;2024-02-28T10:16:09;100615.51;;;6.85;100.00
37304;BME280;23188;51.188;16.374;2024-02-28T10:20:12;100623.00;;;6.90;100.00
37304;BME280;23188;51.188;16.374;2024-02-28T10:24:14;100626.43;;;6.88;100.00
37304;BME280;23188;51.188;16.374;2024-02-28T10:28:16;100630.80;;;6.83;100.00
37304;BME280;23188;51.188;16.374;2024-02-28T10:32:18;100632.56;;;6.78;100.00
37304;BME280;23188;51.188;16.374;2024-02-28T10:36:20;100634.11;;;6.84;100.00
37304;BME280;23188;51.188;16.374;2024-02-28T10:40:22;100639.80;;;6.83;100.00
37304;BME280;23188;51.188;16.374;2024-02-28T10:44:26;100649.63;;;6.75;100.00
37304;BME280;23188;51.188;16.374;2024-02-28T10:48:28;100654.30;;;6.77;100.00
37304;BME280;23188;51.188;16.374;2024-02-28T10:52:33;100656.58;;;6.77;100.00
37304;BME280;23188;51.188;16.374;2024-02-28T10:56:36;100658.58;;;6.73;100.00
37304;BME280;23188;51.188;16.374;2024-02-28T11:00:42;100655.41;;;6.69;100.00
37304;BME280;23188;51.188;16.374;2024-02-28T11:04:51;100649.39;;;6.67;100.00
37304;BME280;23188;51.188;16.374;2024-02-28T11:08:55;100650.31;;;6.66;100.00
37304;BME280;23188;51.188;16.374;2024-02-28T11:12:58;100647.21;;;6.71;100.00
37304;BME280;23188;51.188;16.374;2024-02-28T11:17:04;100650.64;;;6.63;100.00
37304;BME280;23188;51.188;16.374;2024-02-28T11:21:15;100654.11;;;6.61;100.00
37304;BME280;23188;51.188;16.374;2024-02-28T11:25:18;100656.91;;;6.62;100.00
37304;BME280;23188;51.188;16.374;2024-02-28T11:29:27;100652.63;;;6.60;100.00
37304;BME280;23188;51.188;16.374;2024-02-28T11:33:32;100653.55;;;6.62;100.00
37304;BME280;23188;51.188;16.374;2024-02-28T11:37:38;100654.16;;;6.61;100.00
37304;BME280;23188;51.188;16.374;2024-02-28T11:41:44;100660.09;;;6.62;100.00
37304;BME280;23188;51.188;16.374;2024-02-28T11:45:49;100668.05;;;6.61;100.00
37304;BME280;23188;51.188;16.374;2024-02-28T11:49:51;100672.64;;;6.64;100.00
37304;BME280;23188;51.188;16.374;2024-02-28T11:53:52;100679.23;;;6.66;100.00
37304;BME280;23188;51.188;16.374;2024-02-28T11:57:54;100683.90;;;6.62;100.00
37304;BME280;23188;51.188;16.374;2024-02-28T12:01:56;100683.10;;;6.54;100.00
37304;BME280;23188;51.188;16.374;2024-02-28T12:05:58;100688.71;;;6.55;100.00
37304;BME280;23188;51.188;16.374;2024-02-28T12:10:01;100693.89;;;6.50;100.00
37304;BME280;23188;51.188;16.374;2024-02-28T12:14:07;100698.21;;;6.49;100.00
37304;BME280;23188;51.188;16.374;2024-02-28T12:18:11;100699.88;;;6.44;100.00
37304;BME280;23188;51.188;16.374;2024-02-28T12:22:13;100692.14;;;6.47;100.00
37304;BME280;23188;51.188;16.374;2024-02-28T12:26:16;100696.21;;;6.47;100.00
37304;BME280;23188;51.188;16.374;2024-02-28T12:30:19;100689.30;;;6.51;100.00
37304;BME280;23188;51.188;16.374;2024-02-28T12:34:21;100687.95;;;6.56;100.00
37304;BME280;23188;51.188;16.374;2024-02-28T12:38:22;100697.91;;;6.60;100.00
37304;BME280;23188;51.188;16.374;2024-02-28T12:42:24;100698.48;;;6.56;100.00
37304;BME280;23188;51.188;16.374;2024-02-28T12:46:26;100707.09;;;6.54;100.00
37304;BME280;23188;51.188;16.374;2024-02-28T12:50:28;100711.34;;;6.56;100.00
37304;BME280;23188;51.188;16.374;2024-02-28T12:54:30;100716.23;;;6.60;100.00
37304;BME280;23188;51.188;16.374;2024-02-28T12:58:32;100714.69;;;6.63;100.00
37304;BME280;23188;51.188;16.374;2024-02-28T13:02:33;100711.69;;;6.75;100.00
37304;BME280;23188;51.188;16.374;2024-02-28T13:06:35;100712.80;;;6.74;100.00
37304;BME280;23188;51.188;16.374;2024-02-28T13:10:37;100720.70;;;6.69;100.00
37304;BME280;23188;51.188;16.374;2024-02-28T13:14:42;100716.86;;;6.59;100.00
37304;BME280;23188;51.188;16.374;2024-02-28T13:18:44;100720.81;;;6.54;100.00
37304;BME280;23188;51.188;16.374;2024-02-28T13:22:46;100716.75;;;6.54;100.00
37304;BME280;23188;51.188;16.374;2024-02-28T13:26:48;100716.73;;;6.61;100.00
37304;BME280;23188;51.188;16.374;2024-02-28T13:30:50;100718.66;;;6.67;100.00
37304;BME280;23188;51.188;16.374;2024-02-28T13:34:52;100722.13;;;6.65;100.00
37304;BME280;23188;51.188;16.374;2024-02-28T13:38:54;100720.44;;;6.63;100.00
37304;BME280;23188;51.188;16.374;2024-02-28T13:42:55;100720.54;;;6.62;100.00
37304;BME280;23188;51.188;16.374;2024-02-28T13:46:57;100724.67;;;6.64;100.00
37304;BME280;23188;51.188;16.374;2024-02-28T13:50:59;100726.88;;;6.56;100.00
37304;BME280;23188;51.188;16.374;2024-02-28T13:55:01;100726.65;;;6.44;100.00
37304;BME280;23188;51.188;16.374;2024-02-28T13:59:03;100730.96;;;6.39;100.00
37304;BME280;23188;51.188;16.374;2024-02-28T14:03:06;100729.60;;;6.42;100.00
37304;BME280;23188;51.188;16.374;2024-02-28T14:07:08;100732.08;;;6.45;100.00
37304;BME280;23188;51.188;16.374;2024-02-28T14:11:10;100736.39;;;6.47;100.00
37304;BME280;23188;51.188;16.374;2024-02-28T14:15:12;100739.29;;;6.36;100.00
37304;BME280;23188;51.188;16.374;2024-02-28T14:19:14;100741.85;;;6.37;100.00
37304;BME280;23188;51.188;16.374;2024-02-28T14:23:16;100740.98;;;6.31;100.00
37304;BME280;23188;51.188;16.374;2024-02-28T14:27:19;100736.20;;;6.37;100.00
37304;BME280;23188;51.188;16.374;2024-02-28T14:31:22;100742.08;;;6.39;100.00
37304;BME280;23188;51.188;16.374;2024-02-28T14:35:25;100747.52;;;6.42;100.00
37304;BME280;23188;51.188;16.374;2024-02-28T14:39:27;100753.02;;;6.45;100.00
37304;BME280;23188;51.188;16.374;2024-02-28T14:43:29;100757.16;;;6.50;100.00
37304;BME280;23188;51.188;16.374;2024-02-28T14:47:31;100760.09;;;6.48;100.00
37304;BME280;23188;51.188;16.374;2024-02-28T14:51:34;100766.22;;;6.45;100.00
37304;BME280;23188;51.188;16.374;2024-02-28T14:55:37;100777.86;;;6.42;100.00
37304;BME280;23188;51.188;16.374;2024-02-28T14:59:41;100785.36;;;6.40;100.00
37304;BME280;23188;51.188;16.374;2024-02-28T15:03:42;100782.79;;;6.33;100.00
37304;BME280;23188;51.188;16.374;2024-02-28T15:07:44;100782.02;;;6.28;100.00
37304;BME280;23188;51.188;16.374;2024-02-28T15:11:49;100783.51;;;6.23;100.00
37304;BME280;23188;51.188;16.374;2024-02-28T15:15:51;100786.95;;;6.24;100.00
37304;BME280;23188;51.188;16.374;2024-02-28T15:19:53;100783.45;;;6.18;100.00
37304;BME280;23188;51.188;16.374;2024-02-28T15:23:55;100782.63;;;6.17;100.00
37304;BME280;23188;51.188;16.374;2024-02-28T15:27:57;100783.08;;;6.28;100.00
37304;BME280;23188;51.188;16.374;2024-02-28T15:31:59;100784.66;;;6.34;100.00
37304;BME280;23188;51.188;16.374;2024-02-28T15:36:01;100791.95;;;6.33;100.00
37304;BME280;23188;51.188;16.374;2024-02-28T15:40:05;100790.13;;;6.21;100.00
37304;BME280;23188;51.188;16.374;2024-02-28T15:44:08;100790.67;;;6.21;100.00
37304;BME280;23188;51.188;16.374;2024-02-28T15:48:09;100791.92;;;6.24;100.00
37304;BME280;23188;51.188;16.374;2024-02-28T15:52:11;100795.83;;;6.26;100.00
37304;BME280;23188;51.188;16.374;2024-02-28T15:56:13;100792.24;;;6.28;100.00
37304;BME280;23188;51.188;16.374;2024-02-28T16:00:15;100795.58;;;6.24;100.00
37304;BME280;23188;51.188;16.374;2024-02-28T16:04:17;100794.66;;;6.25;100.00
37304;BME280;23188;51.188;16.374;2024-02-28T16:08:19;100790.41;;;6.19;100.00
37304;BME280;23188;51.188;16.374;2024-02-28T16:12:21;100794.55;;;6.15;100.00
37304;BME280;23188;51.188;16.374;2024-02-28T16:16:25;100800.75;;;6.17;100.00
37304;BME280;23188;51.188;16.374;2024-02-28T16:20:28;100799.08;;;6.19;100.00
37304;BME280;23188;51.188;16.374;2024-02-28T16:24:30;100804.79;;;6.17;100.00
37304;BME280;23188;51.188;16.374;2024-02-28T16:28:32;100802.90;;;6.26;100.00
37304;BME280;23188;51.188;16.374;2024-02-28T16:32:34;100799.85;;;6.27;100.00
37304;BME280;23188;51.188;16.374;2024-02-28T16:36:36;100803.84;;;6.22;100.00
37304;BME280;23188;51.188;16.374;2024-02-28T16:40:38;100806.85;;;6.21;100.00
37304;BME280;23188;51.188;16.374;2024-02-28T16:44:40;100805.41;;;6.15;100.00
37304;BME280;23188;51.188;16.374;2024-02-28T16:48:42;100805.97;;;6.15;100.00
37304;BME280;23188;51.188;16.374;2024-02-28T16:52:44;100810.79;;;6.20;100.00
37304;BME280;23188;51.188;16.374;2024-02-28T16:56:46;100814.56;;;6.19;100.00
37304;BME280;23188;51.188;16.374;2024-02-28T17:00:48;100821.45;;;6.15;100.00
37304;BME280;23188;51.188;16.374;2024-02-28T17:04:52;100821.89;;;6.14;100.00
37304;BME280;23188;51.188;16.374;2024-02-28T17:08:54;100830.98;;;6.21;100.00
37304;BME280;23188;51.188;16.374;2024-02-28T17:12:56;100832.55;;;6.21;100.00
37304;BME280;23188;51.188;16.374;2024-02-28T17:16:58;100838.64;;;6.20;100.00
37304;BME280;23188;51.188;16.374;2024-02-28T17:21:00;100837.22;;;6.13;100.00
37304;BME280;23188;51.188;16.374;2024-02-28T17:25:04;100841.15;;;6.12;100.00
37304;BME280;23188;51.188;16.374;2024-02-28T17:29:06;100849.62;;;6.12;100.00
37304;BME280;23188;51.188;16.374;2024-02-28T17:33:09;100853.82;;;6.09;100.00
37304;BME280;23188;51.188;16.374;2024-02-28T17:37:11;100856.86;;;6.11;100.00
37304;BME280;23188;51.188;16.374;2024-02-28T17:41:12;100858.85;;;6.14;100.00
37304;BME280;23188;51.188;16.374;2024-02-28T17:45:14;100859.88;;;6.18;100.00
37304;BME280;23188;51.188;16.374;2024-02-28T17:49:16;100866.73;;;6.15;100.00
37304;BME280;23188;51.188;16.374;2024-02-28T17:53:20;100867.17;;;6.16;100.00
37304;BME280;23188;51.188;16.374;2024-02-28T17:57:22;100869.40;;;6.11;100.00
37304;BME280;23188;51.188;16.374;2024-02-28T18:01:23;100869.49;;;6.12;100.00
37304;BME280;23188;51.188;16.374;2024-02-28T18:05:25;100874.98;;;6.08;100.00
37304;BME280;23188;51.188;16.374;2024-02-28T18:09:28;100876.83;;;6.07;100.00
37304;BME280;23188;51.188;16.374;2024-02-28T18:13:31;100884.79;;;6.09;100.00
37304;BME280;23188;51.188;16.374;2024-02-28T18:17:33;100889.02;;;6.06;100.00
37304;BME280;23188;51.188;16.374;2024-02-28T18:21:35;100891.62;;;6.07;100.00
37304;BME280;23188;51.188;16.374;2024-02-28T18:25:37;100887.22;;;6.06;100.00
37304;BME280;23188;51.188;16.374;2024-02-28T18:29:39;100890.56;;;6.07;100.00
37304;BME280;23188;51.188;16.374;2024-02-28T18:33:41;100890.60;;;6.13;100.00
37304;BME280;23188;51.188;16.374;2024-02-28T18:37:43;100895.40;;;6.12;100.00
37304;BME280;23188;51.188;16.374;2024-02-28T18:41:45;100893.86;;;6.11;100.00
37304;BME280;23188;51.188;16.374;2024-02-28T18:45:48;100898.76;;;6.12;100.00
37304;BME280;23188;51.188;16.374;2024-02-28T18:49:50;100902.70;;;6.14;100.00
37304;BME280;23188;51.188;16.374;2024-02-28T18:53:52;100902.95;;;6.12;100.00
37304;BME280;23188;51.188;16.374;2024-02-28T18:57:54;100900.29;;;6.13;100.00
37304;BME280;23188;51.188;16.374;2024-02-28T19:01:55;100902.63;;;6.19;100.00
37304;BME280;23188;51.188;16.374;2024-02-28T19:05:57;100901.94;;;6.12;100.00
37304;BME280;23188;51.188;16.374;2024-02-28T19:09:59;100902.93;;;6.06;100.00
37304;BME280;23188;51.188;16.374;2024-02-28T19:14:01;100903.67;;;6.02;100.00
37304;BME280;23188;51.188;16.374;2024-02-28T19:18:03;100906.49;;;6.02;100.00
37304;BME280;23188;51.188;16.374;2024-02-28T19:22:05;100908.09;;;6.02;100.00
37304;BME280;23188;51.188;16.374;2024-02-28T19:26:07;100910.49;;;5.99;100.00
37304;BME280;23188;51.188;16.374;2024-02-28T19:30:09;100909.94;;;5.93;100.00
37304;BME280;23188;51.188;16.374;2024-02-28T19:34:11;100909.99;;;5.92;100.00
37304;BME280;23188;51.188;16.374;2024-02-28T19:38:15;100914.76;;;5.91;100.00
37304;BME280;23188;51.188;16.374;2024-02-28T19:42:16;100913.13;;;5.99;100.00
37304;BME280;23188;51.188;16.374;2024-02-28T19:46:18;100910.66;;;6.06;100.00
37304;BME280;23188;51.188;16.374;2024-02-28T19:50:23;100906.31;;;6.06;100.00
37304;BME280;23188;51.188;16.374;2024-02-28T19:54:25;100908.81;;;6.11;100.00
37304;BME280;23188;51.188;16.374;2024-02-28T19:58:28;100915.57;;;6.14;100.00
37304;BME280;23188;51.188;16.374;2024-02-28T20:02:30;100916.98;;;6.17;100.00
37304;BME280;23188;51.188;16.374;2024-02-28T20:06:32;100917.14;;;6.07;100.00
37304;BME280;23188;51.188;16.374;2024-02-28T20:10:34;100917.30;;;5.97;100.00
37304;BME280;23188;51.188;16.374;2024-02-28T20:14:37;100922.69;;;5.94;100.00
37304;BME280;23188;51.188;16.374;2024-02-28T20:18:39;100928.61;;;5.99;100.00
37304;BME280;23188;51.188;16.374;2024-02-28T20:22:41;100931.74;;;6.00;100.00
37304;BME280;23188;51.188;16.374;2024-02-28T20:26:42;100936.84;;;6.04;100.00
37304;BME280;23188;51.188;16.374;2024-02-28T20:30:44;100937.27;;;6.02;100.00
37304;BME280;23188;51.188;16.374;2024-02-28T20:34:46;100933.44;;;6.02;100.00
37304;BME280;23188;51.188;16.374;2024-02-28T20:38:48;100929.34;;;5.98;100.00
37304;BME280;23188;51.188;16.374;2024-02-28T20:42:50;100932.11;;;5.96;100.00
37304;BME280;23188;51.188;16.374;2024-02-28T20:46:52;100929.75;;;5.91;100.00
37304;BME280;23188;51.188;16.374;2024-02-28T20:50:54;100931.56;;;5.83;100.00